Time;durP1;ratioP1;P1;durP2;ratioP2;P2;SDS_P1;SDS_P2;PMS_P1;PMS_P2;Temp;Humidity;BMP_temperature;BMP_pressure;BME280_temperature;BME280_humidity;BME280_pressure;Samples;Min_cycle;Max_cycle;Signal;HPM_P1;HPM_P2
2023/09/23 00:00:24;;;;;;;11.43;6.60;;;;;;;20.66;71.29;94970.00;5096457;28;20242;-66
2023/09/23 00:02:56;;;;;;;12.10;6.25;;;;;;;20.62;71.21;94969.28;5097556;28;20250;-66
2023/09/23 00:05:26;;;;;;;8.57;6.13;;;;;;;20.59;71.50;94962.53;5096351;28;20180;-66
2023/09/23 00:07:55;;;;;;;9.60;6.60;;;;;;;20.57;71.41;94958.53;5096250;28;20329;-66
2023/09/23 00:10:23;;;;;;;8.23;6.03;;;;;;;20.54;71.81;94962.19;5096419;28;20192;-66
2023/09/23 00:12:55;;;;;;;10.20;6.13;;;;;;;20.51;71.57;94972.22;5097175;28;20191;-66
2023/09/23 00:15:22;;;;;;;9.07;6.35;;;;;;;20.44;70.80;94969.47;5096431;28;20257;-66
2023/09/23 00:17:53;;;;;;;6.68;5.95;;;;;;;20.40;71.68;94954.72;5097168;28;20216;-66
2023/09/23 00:20:22;;;;;;;11.93;6.43;;;;;;;20.35;71.57;94958.78;5095868;28;20208;-66
2023/09/23 00:22:54;;;;;;;9.02;6.63;;;;;;;20.32;72.15;94962.41;5096328;28;20207;-66
2023/09/23 00:25:23;;;;;;;8.70;7.10;;;;;;;20.33;71.94;94964.00;5095906;28;20300;-66
2023/09/23 00:27:54;;;;;;;9.43;6.32;;;;;;;20.33;72.58;94968.81;5097098;28;20258;-66
2023/09/23 00:30:22;;;;;;;9.00;6.13;;;;;;;20.34;72.48;94962.03;5108523;28;20318;-66
2023/09/23 00:32:50;;;;;;;10.75;6.32;;;;;;;20.29;72.03;94963.25;5117323;28;20195;-66
2023/09/23 00:35:18;;;;;;;8.15;6.25;;;;;;;20.19;72.05;94962.19;5117048;28;20192;-66
2023/09/23 00:37:48;;;;;;;7.90;5.97;;;;;;;20.16;72.58;94967.81;5099841;28;20195;-66
2023/09/23 00:40:27;;;;;;;9.05;5.60;;;;;;;20.14;72.40;94970.22;5099648;28;20183;-66
2023/09/23 00:42:58;;;;;;;10.52;6.20;;;;;;;20.14;72.71;94971.03;5116340;28;20199;-66
2023/09/23 00:45:29;;;;;;;9.48;6.28;;;;;;;20.13;72.49;94966.66;5117094;28;20278;-66
2023/09/23 00:47:57;;;;;;;9.93;6.10;;;;;;;20.08;72.62;94963.50;5099191;28;20249;-66
2023/09/23 00:50:25;;;;;;;6.97;5.93;;;;;;;20.05;72.86;94962.34;5098743;28;20214;-66
2023/09/23 00:52:54;;;;;;;8.07;5.82;;;;;;;20.07;73.07;94953.53;5098844;28;20206;-66
2023/09/23 00:55:24;;;;;;;8.95;6.07;;;;;;;20.07;73.09;94964.72;5116680;28;20187;-66
2023/09/23 00:57:53;;;;;;;10.45;6.18;;;;;;;20.07;72.75;94957.09;5098808;28;20302;-66
2023/09/23 01:00:27;;;;;;;9.85;6.00;;;;;;;19.96;72.27;94954.44;5116452;28;20199;-66
2023/09/23 01:02:58;;;;;;;10.35;6.10;;;;;;;19.92;72.86;94955.69;5116505;28;20227;-66
2023/09/23 01:05:28;;;;;;;12.38;6.38;;;;;;;19.89;73.41;94960.09;5116694;28;20268;-66
2023/09/23 01:07:56;;;;;;;9.05;7.00;;;;;;;19.89;73.34;94946.09;5115885;28;20195;-66
2023/09/23 01:10:24;;;;;;;8.52;6.07;;;;;;;19.90;73.78;94947.72;5116772;28;20184;-66
2023/09/23 01:12:52;;;;;;;9.63;6.18;;;;;;;19.89;73.69;94954.50;5098373;28;20206;-66
2023/09/23 01:15:20;;;;;;;7.70;6.13;;;;;;;19.90;73.53;94953.31;5098305;28;20207;-66
2023/09/23 01:17:53;;;;;;;8.57;6.10;;;;;;;19.87;73.25;94956.94;5098333;28;20200;-66
2023/09/23 01:20:25;;;;;;;10.10;6.10;;;;;;;19.87;73.21;94953.34;5098212;28;20245;-66
2023/09/23 01:22:58;;;;;;;9.15;6.18;;;;;;;19.82;73.59;94960.16;5098659;28;20195;-66
2023/09/23 01:25:26;;;;;;;8.02;5.78;;;;;;;19.81;73.28;94949.41;5098621;28;20231;-66
2023/09/23 01:27:55;;;;;;;9.52;6.13;;;;;;;19.79;73.39;94958.22;5116215;28;20218;-66
2023/09/23 01:30:24;;;;;;;9.68;6.68;;;;;;;19.76;73.15;94947.06;5095033;28;20277;-66
2023/09/23 01:32:53;;;;;;;10.95;6.82;;;;;;;19.71;73.42;94948.28;5094928;28;20188;-66
2023/09/23 01:35:22;;;;;;;8.90;6.28;;;;;;;19.67;73.97;94953.13;5095806;28;20185;-66
2023/09/23 01:37:50;;;;;;;8.07;5.60;;;;;;;19.64;74.26;94948.38;5095943;28;20189;-66
2023/09/23 01:40:24;;;;;;;8.32;6.18;;;;;;;19.65;74.35;94950.75;5094878;28;20191;-66
2023/09/23 01:42:53;;;;;;;9.65;6.47;;;;;;;19.60;74.63;94951.16;5095841;28;20201;-66
2023/09/23 01:45:26;;;;;;;9.35;7.28;;;;;;;19.58;74.37;94952.81;5094789;28;20528;-66
2023/09/23 01:47:57;;;;;;;9.40;6.75;;;;;;;19.55;74.13;94950.84;5095079;28;20246;-66
2023/09/23 01:50:26;;;;;;;12.48;6.43;;;;;;;19.52;74.05;94952.44;5095399;28;20188;-66
2023/09/23 01:52:54;;;;;;;10.07;6.40;;;;;;;19.51;74.52;94952.88;5095194;28;20536;-66
2023/09/23 01:55:28;;;;;;;11.98;6.22;;;;;;;19.50;74.14;94954.88;5094868;28;20192;-66
2023/09/23 01:57:56;;;;;;;8.65;6.50;;;;;;;19.50;74.30;94946.50;5112219;28;20204;-66
2023/09/23 02:00:28;;;;;;;10.30;7.05;;;;;;;19.51;74.39;94948.06;5095227;28;20512;-66
2023/09/23 02:02:57;;;;;;;8.13;5.85;;;;;;;19.46;74.28;94952.13;5094532;28;20273;-66
2023/09/23 02:05:27;;;;;;;9.27;6.10;;;;;;;19.45;74.46;94952.50;5094542;28;20188;-66
2023/09/23 02:07:55;;;;;;;9.27;6.22;;;;;;;19.44;74.84;94951.72;5095589;28;20219;-66
2023/09/23 02:10:26;;;;;;;8.27;6.03;;;;;;;19.41;74.45;94946.94;5094216;28;20204;-66
2023/09/23 02:12:54;;;;;;;11.10;6.22;;;;;;;19.35;74.39;94956.19;5094396;28;20541;-66
2023/09/23 02:15:24;;;;;;;8.40;5.85;;;;;;;19.27;74.29;94954.66;5094352;28;20192;-66
2023/09/23 02:17:51;;;;;;;9.23;6.15;;;;;;;19.24;74.60;94957.09;5095019;28;20204;-66
2023/09/23 02:20:21;;;;;;;7.40;6.45;;;;;;;19.22;74.85;94961.50;5095426;28;20515;-66
2023/09/23 02:22:52;;;;;;;9.57;6.22;;;;;;;19.18;74.55;94966.31;5094379;28;20220;-66
2023/09/23 02:25:24;;;;;;;10.50;6.75;;;;;;;19.15;74.43;94972.72;5094207;28;20193;-66
2023/09/23 02:27:55;;;;;;;9.65;5.97;;;;;;;19.12;74.68;94974.34;5094794;28;20192;-66
2023/09/23 02:30:23;;;;;;;9.35;6.10;;;;;;;19.13;74.56;94975.13;5110711;28;20234;-66
2023/09/23 02:32:51;;;;;;;9.52;6.47;;;;;;;19.14;74.80;94987.94;5119413;28;20184;-66
2023/09/23 02:35:19;;;;;;;8.00;5.90;;;;;;;19.10;74.42;94984.34;5101734;28;20260;-66
2023/09/23 02:37:49;;;;;;;8.95;6.10;;;;;;;19.05;75.03;94979.19;5102045;28;20231;-66
2023/09/23 02:40:17;;;;;;;8.15;5.93;;;;;;;19.04;75.50;94984.00;5101727;28;20216;-66
2023/09/23 02:42:46;;;;;;;8.38;6.00;;;;;;;19.06;76.13;94989.16;5101760;28;20208;-66
2023/09/23 02:45:17;;;;;;;9.90;6.22;;;;;;;19.04;75.71;94994.38;5101500;28;20237;-66
2023/09/23 02:47:46;;;;;;;11.52;6.40;;;;;;;19.00;75.78;94995.19;5101611;28;20192;-66
2023/09/23 02:50:15;;;;;;;10.07;6.38;;;;;;;18.99;75.77;94995.59;5119372;28;20196;-66
2023/09/23 02:52:44;;;;;;;10.57;5.97;;;;;;;18.97;75.80;94989.63;5101268;28;20203;-66
2023/09/23 02:55:14;;;;;;;11.25;6.53;;;;;;;18.96;76.10;94994.44;5101306;28;20234;-66
2023/09/23 02:57:45;;;;;;;10.10;6.30;;;;;;;19.00;76.34;94994.41;5101297;28;20208;-66
2023/09/23 03:00:17;;;;;;;8.52;5.75;;;;;;;19.04;75.65;94999.97;5118864;28;20287;-66
2023/09/23 03:02:48;;;;;;;10.27;6.32;;;;;;;19.04;75.78;94995.16;5119096;28;20212;-66
2023/09/23 03:05:17;;;;;;;10.85;5.80;;;;;;;18.98;74.85;94996.81;5119053;28;20195;-66
2023/09/23 03:07:48;;;;;;;10.65;6.70;;;;;;;18.93;74.81;95000.03;5118112;28;20522;-66
2023/09/23 03:10:19;;;;;;;9.73;6.15;;;;;;;18.86;75.04;94994.50;5119015;28;20188;-66
2023/09/23 03:13:01;;;;;;;12.10;6.30;;;;;;;18.84;74.67;94991.28;5101231;28;20303;-66
2023/09/23 03:15:37;;;;;;;11.27;5.97;;;;;;;18.74;74.74;94996.56;5101006;28;20234;-66
2023/09/23 03:18:06;;;;;;;8.68;5.95;;;;;;;18.76;75.42;94996.94;5100780;28;20619;-66
2023/09/23 03:20:36;;;;;;;10.32;5.90;;;;;;;18.73;75.62;95000.53;5100851;28;20610;-66
2023/09/23 03:23:09;;;;;;;8.50;5.97;;;;;;;18.74;75.47;95004.13;5118667;28;20200;-66
2023/09/23 03:25:48;;;;;;;10.35;6.22;;;;;;;18.70;75.22;95000.50;5118986;28;20256;-66
2023/09/23 03:28:16;;;;;;;8.60;6.07;;;;;;;18.70;75.35;94997.72;5100439;28;20194;-66
2023/09/23 03:30:47;;;;;;;11.18;5.57;;;;;;;18.68;75.04;95003.72;5117400;28;20232;-66
2023/09/23 03:33:16;;;;;;;6.72;5.03;;;;;;;18.66;74.78;95002.53;5118196;28;20188;-66
2023/09/23 03:35:44;;;;;;;11.90;5.57;;;;;;;18.63;74.74;95003.38;5100717;28;20206;-66
2023/09/23 03:38:12;;;;;;;8.63;5.93;;;;;;;18.60;74.90;94998.59;5100848;28;20290;-66
2023/09/23 03:40:40;;;;;;;9.77;5.88;;;;;;;18.61;74.99;94991.81;5117941;28;20604;-66
2023/09/23 03:43:09;;;;;;;10.52;5.72;;;;;;;18.57;75.23;94997.41;5100255;28;20299;-66
2023/09/23 03:45:38;;;;;;;8.73;5.50;;;;;;;18.55;75.21;95001.78;5100583;28;20187;-66
2023/09/23 03:48:10;;;;;;;11.98;6.15;;;;;;;18.50;75.08;95003.81;5118281;28;20180;-66
2023/09/23 03:50:40;;;;;;;8.57;5.65;;;;;;;18.49;75.17;95007.81;5117840;28;20195;-66
2023/09/23 03:53:10;;;;;;;10.13;5.82;;;;;;;18.44;74.96;95011.00;5118104;28;20180;-66
2023/09/23 03:55:41;;;;;;;8.18;5.78;;;;;;;18.42;75.24;95007.06;5118141;28;20214;-66
2023/09/23 03:58:11;;;;;;;8.10;5.38;;;;;;;18.40;75.44;95013.03;5100296;28;20206;-66
2023/09/23 04:00:41;;;;;;;10.95;5.50;;;;;;;18.40;75.60;95015.03;5099947;28;20192;-66
2023/09/23 04:03:10;;;;;;;9.10;5.97;;;;;;;18.40;75.61;95013.03;5100006;28;20284;-66
2023/09/23 04:05:38;;;;;;;9.88;6.20;;;;;;;18.35;75.52;95021.03;5099989;28;20195;-66
2023/09/23 04:08:07;;;;;;;9.60;6.00;;;;;;;18.34;75.72;95017.44;5118122;28;20187;-66
2023/09/23 04:10:39;;;;;;;6.63;5.47;;;;;;;18.29;75.96;95021.44;5117716;28;20199;-66
2023/09/23 04:13:07;;;;;;;9.98;6.28;;;;;;;18.26;75.98;95018.66;5099894;28;20192;-66
2023/09/23 04:15:35;;;;;;;6.40;5.70;;;;;;;18.29;76.13;95027.00;5117644;28;20206;-66
2023/09/23 04:18:04;;;;;;;10.65;5.90;;;;;;;18.31;76.31;95031.44;5117699;28;20206;-66
2023/09/23 04:20:33;;;;;;;10.60;6.10;;;;;;;18.29;76.79;95029.81;5083113;28;20192;-66
2023/09/23 04:23:00;;;;;;;8.20;6.70;;;;;;;18.29;76.82;95037.41;5099340;28;20265;-66
2023/09/23 04:25:27;;;;;;;7.38;6.55;;;;;;;18.30;76.87;95039.00;5099520;28;20206;-66
2023/09/23 04:27:56;;;;;;;13.02;6.47;;;;;;;18.31;77.01;95046.19;5082635;28;20202;-66
2023/09/23 04:30:25;;;;;;;9.70;7.00;;;;;;;18.33;76.73;95043.75;5099828;28;20238;-66
2023/09/23 04:32:55;;;;;;;11.70;6.47;;;;;;;18.32;76.88;95039.38;5117444;28;20180;-65
2023/09/23 04:35:23;;;;;;;11.10;6.32;;;;;;;18.32;76.84;95055.34;5099333;28;20203;-66
2023/09/23 04:37:53;;;;;;;13.68;7.30;;;;;;;18.32;76.97;95061.72;5099371;28;20218;-66
2023/09/23 04:40:21;;;;;;;9.45;6.63;;;;;;;18.33;76.88;95065.31;5117227;28;20619;-66
2023/09/23 04:42:50;;;;;;;9.45;7.05;;;;;;;18.35;76.88;95068.50;5098977;28;20662;-66
2023/09/23 04:45:20;;;;;;;12.38;7.60;;;;;;;18.38;76.75;95073.28;5098948;28;20206;-66
2023/09/23 04:47:51;;;;;;;13.15;7.15;;;;;;;18.38;76.54;95067.69;5117180;28;20258;-66
2023/09/23 04:50:22;;;;;;;12.10;6.93;;;;;;;18.35;76.63;95071.28;5116631;28;20191;-66
2023/09/23 04:52:52;;;;;;;10.57;6.82;;;;;;;18.34;76.90;95062.13;5099142;28;20206;-66
2023/09/23 04:55:21;;;;;;;11.90;7.03;;;;;;;18.36;76.84;95067.28;5116933;28;20199;-66
2023/09/23 04:57:50;;;;;;;11.18;7.32;;;;;;;18.37;76.86;95060.50;5115982;28;20192;-66
2023/09/23 05:00:19;;;;;;;13.88;7.50;;;;;;;18.34;76.69;95056.53;5116273;28;20547;-66
2023/09/23 05:02:49;;;;;;;11.18;7.32;;;;;;;18.34;76.74;95062.13;5099046;28;20216;-66
2023/09/23 05:05:17;;;;;;;13.27;7.47;;;;;;;18.35;76.63;95071.28;5098546;28;20194;-66
2023/09/23 05:07:45;;;;;;;12.85;7.97;;;;;;;18.37;77.05;95075.25;5098720;28;20213;-66
2023/09/23 05:10:18;;;;;;;9.57;6.93;;;;;;;18.38;76.79;95073.28;5116655;28;20195;-66
2023/09/23 05:12:46;;;;;;;14.35;6.82;;;;;;;18.36;76.64;95081.25;5116742;28;20180;-66
2023/09/23 05:15:14;;;;;;;12.30;6.50;;;;;;;18.35;76.67;95066.50;5098609;28;20202;-66
2023/09/23 05:17:43;;;;;;;11.18;6.85;;;;;;;18.38;77.07;95071.28;5098652;28;20626;-66
2023/09/23 05:20:25;;;;;;;10.90;6.97;;;;;;;18.41;76.91;95073.28;5116179;28;20637;-65
2023/09/23 05:22:55;;;;;;;11.18;7.03;;;;;;;18.45;77.07;95073.25;5098581;28;20610;-65
2023/09/23 05:25:28;;;;;;;10.40;7.00;;;;;;;18.51;76.51;95077.22;5116387;28;20180;-65
2023/09/23 05:27:57;;;;;;;11.63;7.32;;;;;;;18.57;76.74;95072.03;5116568;28;20204;-66
2023/09/23 05:30:27;;;;;;;13.35;7.53;;;;;;;18.63;76.94;95067.63;5116484;28;20243;-66
2023/09/23 05:32:55;;;;;;;11.98;7.05;;;;;;;18.67;77.03;95071.19;5115155;28;20202;-66
2023/09/23 05:35:25;;;;;;;13.38;7.03;;;;;;;18.71;77.10;95072.00;5116105;28;20238;-66
2023/09/23 05:37:54;;;;;;;8.25;6.88;;;;;;;18.74;77.21;95069.19;5097547;28;20208;-66
2023/09/23 05:40:29;;;;;;;10.45;8.27;;;;;;;18.80;76.86;95072.34;5116115;28;20198;-66
2023/09/23 05:42:57;;;;;;;13.40;7.70;;;;;;;18.87;76.79;95077.91;5097840;28;20221;-66
2023/09/23 05:45:26;;;;;;;14.43;8.48;;;;;;;18.92;76.95;95073.91;5097752;28;20204;-66
2023/09/23 05:47:54;;;;;;;10.18;8.05;;;;;;;18.93;76.73;95081.06;5098434;28;20206;-66
2023/09/23 05:50:24;;;;;;;12.02;7.65;;;;;;;18.96;76.22;95086.66;5097978;28;20210;-66
2023/09/23 05:52:55;;;;;;;13.02;7.68;;;;;;;19.05;75.43;95082.59;5115681;28;20180;-66
2023/09/23 05:55:26;;;;;;;11.18;7.85;;;;;;;19.09;75.28;95086.19;5097635;28;20191;-66
2023/09/23 05:57:54;;;;;;;9.60;8.10;;;;;;;19.13;75.36;95082.16;5097890;28;20203;-66
2023/09/23 06:00:25;;;;;;;13.95;8.02;;;;;;;19.18;75.25;95098.50;5098096;28;20214;-66
2023/09/23 06:02:54;;;;;;;11.93;7.47;;;;;;;19.23;75.54;95084.09;5114564;28;20235;-65
2023/09/23 06:05:24;;;;;;;11.30;6.95;;;;;;;19.30;74.78;95088.84;5097790;28;20195;-66
2023/09/23 06:07:52;;;;;;;12.30;7.22;;;;;;;19.34;74.84;95086.03;5115862;28;20203;-66
2023/09/23 06:10:20;;;;;;;10.35;8.40;;;;;;;19.40;74.08;95087.22;5097834;28;20577;-65
2023/09/23 06:12:50;;;;;;;14.77;9.93;;;;;;;19.44;74.10;95085.97;5097888;28;20188;-66
2023/09/23 06:15:17;;;;;;;17.90;11.65;;;;;;;19.47;73.88;95090.75;5097691;28;20199;-66
2023/09/23 06:17:45;;;;;;;16.67;11.52;;;;;;;19.54;73.56;95091.91;5115401;28;20623;-66
2023/09/23 06:20:13;;;;;;;19.15;11.85;;;;;;;19.57;73.73;95103.06;5097882;28;20187;-66
2023/09/23 06:22:41;;;;;;;17.48;12.52;;;;;;;19.63;73.72;95100.66;5097361;28;20704;-66
2023/09/23 06:25:10;;;;;;;19.80;15.38;;;;;;;19.66;73.84;95097.03;5097666;28;20202;-66
2023/09/23 06:27:41;;;;;;;16.00;12.23;;;;;;;19.71;73.91;95099.38;5115583;28;20180;-66
2023/09/23 06:30:13;;;;;;;15.32;10.00;;;;;;;19.76;73.48;95098.97;5094185;28;20323;-66
2023/09/23 06:32:41;;;;;;;15.73;10.15;;;;;;;19.82;73.28;95099.31;5094119;28;20193;-66
2023/09/23 06:35:09;;;;;;;16.10;10.52;;;;;;;19.85;73.48;95110.47;5094256;28;20192;-66
2023/09/23 06:37:36;;;;;;;17.02;9.60;;;;;;;19.91;73.12;95102.44;5095798;28;20200;-65
2023/09/23 06:40:05;;;;;;;15.35;8.68;;;;;;;19.96;72.99;95104.78;5094822;28;20669;-65
2023/09/23 06:42:33;;;;;;;14.95;8.95;;;;;;;20.02;72.44;95110.75;5094662;28;20212;-66
2023/09/23 06:45:06;;;;;;;13.73;8.43;;;;;;;20.07;72.85;95108.28;5095079;28;20196;-66
2023/09/23 06:47:35;;;;;;;14.27;8.38;;;;;;;20.13;72.34;95105.84;5094707;28;20204;-66
2023/09/23 06:50:04;;;;;;;12.45;9.50;;;;;;;20.15;71.08;95109.84;5111129;28;20544;-66
2023/09/23 06:52:32;;;;;;;17.00;11.50;;;;;;;20.21;71.43;95112.97;5095133;28;20184;-66
2023/09/23 06:55:00;;;;;;;16.42;10.68;;;;;;;20.26;71.55;95111.72;5094995;28;20185;-66
2023/09/23 06:57:28;;;;;;;14.32;9.82;;;;;;;20.31;71.13;95117.69;5094650;28;20624;-66
2023/09/23 06:59:55;;;;;;;13.75;10.02;;;;;;;20.34;70.68;95119.66;5094120;28;20201;-66
2023/09/23 07:02:25;;;;;;;14.38;9.15;;;;;;;20.39;70.46;95124.78;5093920;28;20624;-66
2023/09/23 07:04:55;;;;;;;14.40;8.60;;;;;;;20.42;70.20;95115.56;5094615;28;20197;-66
2023/09/23 07:07:23;;;;;;;14.75;9.07;;;;;;;20.46;69.70;95117.53;5093862;28;20188;-66
2023/09/23 07:09:52;;;;;;;16.33;10.23;;;;;;;20.50;70.11;95126.72;5076406;28;20204;-66
2023/09/23 07:12:20;;;;;;;13.93;8.82;;;;;;;20.56;69.28;95127.88;5094852;28;20198;-66
2023/09/23 07:14:49;;;;;;;12.50;8.27;;;;;;;20.59;69.34;95122.22;5096846;28;20212;-66
2023/09/23 07:17:18;;;;;;;10.82;7.82;;;;;;;20.65;69.06;95120.53;5098482;28;20196;-66
2023/09/23 07:19:47;;;;;;;15.52;9.18;;;;;;;20.71;68.89;95120.09;5097338;28;20232;-66
2023/09/23 07:22:15;;;;;;;16.02;9.57;;;;;;;20.79;68.76;95116.78;5098184;28;20592;-66
2023/09/23 07:24:43;;;;;;;14.30;9.70;;;;;;;20.88;68.34;95127.53;5098404;28;20208;-66
2023/09/23 07:27:11;;;;;;;13.52;9.35;;;;;;;20.96;68.27;95120.59;5097328;28;20278;-66
2023/09/23 07:29:39;;;;;;;11.57;7.85;;;;;;;21.05;68.15;95128.50;5100736;28;20238;-65
2023/09/23 07:32:07;;;;;;;12.93;7.72;;;;;;;21.13;67.71;95130.81;5101141;28;20191;-66
2023/09/23 07:34:35;;;;;;;17.77;8.20;;;;;;;21.23;67.37;95126.25;5118607;28;20275;-66
2023/09/23 07:37:06;;;;;;;11.20;7.75;;;;;;;21.32;66.92;95122.97;5118532;28;20188;-66
2023/09/23 07:39:34;;;;;;;14.70;8.48;;;;;;;21.38;67.06;95124.09;5118412;28;20195;-65
2023/09/23 07:42:02;;;;;;;13.75;7.80;;;;;;;21.48;67.06;95125.16;5100171;28;20210;-66
2023/09/23 07:44:30;;;;;;;13.98;7.97;;;;;;;21.58;66.15;95121.41;5100723;28;20220;-65
2023/09/23 07:46:57;;;;;;;10.18;6.85;;;;;;;21.76;64.58;95115.53;5118019;28;20180;-65
2023/09/23 07:49:25;;;;;;;12.98;7.93;;;;;;;21.93;64.31;95116.47;5099982;28;20305;-65
2023/09/23 07:51:53;;;;;;;14.23;7.57;;;;;;;22.07;63.56;95117.03;5118120;28;20207;-65
2023/09/23 07:54:21;;;;;;;16.55;7.88;;;;;;;22.18;63.47;95116.88;5118163;28;20275;-65
2023/09/23 07:56:50;;;;;;;11.07;7.70;;;;;;;22.30;62.93;95116.28;5118002;28;20559;-66
2023/09/23 07:59:18;;;;;;;14.32;7.63;;;;;;;22.45;62.97;95107.59;5117155;28;20211;-65
2023/09/23 08:01:48;;;;;;;10.07;7.35;;;;;;;22.51;61.83;95117.94;5100002;28;20195;-66
2023/09/23 08:04:19;;;;;;;13.77;8.07;;;;;;;22.53;61.33;95112.66;5100083;28;20220;-66
2023/09/23 08:06:45;;;;;;;10.88;7.90;;;;;;;22.62;61.95;95102.84;5117969;28;20191;-66
2023/09/23 08:09:14;;;;;;;13.90;7.60;;;;;;;22.72;62.00;95096.25;5117808;28;20207;-65
2023/09/23 08:11:43;;;;;;;14.30;7.65;;;;;;;22.82;60.87;95098.06;5099802;28;20203;-66
2023/09/23 08:14:13;;;;;;;12.98;7.60;;;;;;;22.90;61.08;95095.88;5117769;28;20570;-66
2023/09/23 08:16:41;;;;;;;12.75;7.68;;;;;;;23.10;60.74;95093.13;5117776;28;20184;-65
2023/09/23 08:19:10;;;;;;;12.05;7.22;;;;;;;23.40;59.32;95094.88;5117441;28;20267;-66
2023/09/23 08:21:40;;;;;;;12.15;7.13;;;;;;;23.50;58.95;95091.03;5099782;28;20196;-65
2023/09/23 08:24:08;;;;;;;14.80;7.68;;;;;;;23.60;58.50;95089.97;5100024;28;20216;-66
2023/09/23 08:26:36;;;;;;;17.20;8.32;;;;;;;23.73;58.36;95095.75;5116567;28;20188;-66
2023/09/23 08:29:03;;;;;;;13.32;7.70;;;;;;;23.86;56.71;95084.59;5099534;28;20206;-65
2023/09/23 08:31:33;;;;;;;13.55;8.48;;;;;;;23.94;57.03;95081.16;5096579;28;20239;-65
2023/09/23 08:34:03;;;;;;;12.45;8.10;;;;;;;24.19;55.91;95083.38;5096030;28;20185;-65
2023/09/23 08:36:33;;;;;;;14.63;8.00;;;;;;;24.29;54.96;95083.50;5096009;28;20197;-66
2023/09/23 08:39:00;;;;;;;15.20;9.48;;;;;;;24.38;55.18;95086.50;5096912;28;20201;-65
2023/09/23 08:41:28;;;;;;;11.07;7.90;;;;;;;24.45;55.28;95084.31;5096584;28;20529;-66
2023/09/23 08:43:59;;;;;;;14.40;8.50;;;;;;;24.48;55.59;95083.44;5095964;28;20218;-65
2023/09/23 08:46:27;;;;;;;15.10;8.10;;;;;;;24.65;55.33;95083.41;5095684;28;20211;-66
2023/09/23 08:48:57;;;;;;;13.82;8.20;;;;;;;24.78;53.54;95078.59;5096759;28;20210;-66
2023/09/23 08:51:27;;;;;;;16.00;7.95;;;;;;;24.90;52.59;95083.50;5112715;28;20206;-66
2023/09/23 08:53:56;;;;;;;10.85;7.10;;;;;;;24.94;52.38;95077.75;5096129;28;20204;-65
2023/09/23 08:56:24;;;;;;;15.57;7.35;;;;;;;25.05;53.43;95064.13;5096387;28;20192;-65
2023/09/23 08:58:52;;;;;;;12.18;7.20;;;;;;;25.21;52.60;95064.09;5095826;28;20211;-65
2023/09/23 09:01:19;;;;;;;13.40;7.68;;;;;;;25.30;52.42;95060.59;5096215;28;20620;-66
2023/09/23 09:03:47;;;;;;;12.00;7.15;;;;;;;25.39;52.50;95069.19;5095388;28;20220;-66
2023/09/23 09:06:21;;;;;;;14.80;7.90;;;;;;;25.46;52.51;95065.38;5096247;28;20185;-65
2023/09/23 09:08:50;;;;;;;14.73;7.35;;;;;;;25.51;52.17;95064.03;5096147;28;20216;-66
2023/09/23 09:11:24;;;;;;;13.05;7.30;;;;;;;25.64;51.32;95067.66;5096234;28;20187;-66
2023/09/23 09:13:52;;;;;;;13.43;7.88;;;;;;;25.73;50.84;95064.13;5095083;28;20199;-65
2023/09/23 09:16:21;;;;;;;13.60;6.85;;;;;;;25.87;48.95;95055.25;5096119;28;20188;-66
2023/09/23 09:18:51;;;;;;;14.63;8.20;;;;;;;25.92;50.80;95060.31;5095483;28;20192;-66
2023/09/23 09:21:21;;;;;;;11.93;7.80;;;;;;;25.96;49.55;95060.19;5095739;28;20193;-66
2023/09/23 09:23:48;;;;;;;12.98;7.28;;;;;;;25.94;49.14;95057.84;5095883;28;20231;-66
2023/09/23 09:26:18;;;;;;;14.95;8.13;;;;;;;26.04;48.50;95053.09;5094872;28;20208;-66
2023/09/23 09:28:46;;;;;;;13.18;6.95;;;;;;;26.17;49.28;95053.81;5094704;28;20635;-66
2023/09/23 09:31:15;;;;;;;11.45;7.45;;;;;;;26.32;48.82;95049.25;5095147;28;20268;-66
2023/09/23 09:33:47;;;;;;;14.85;7.35;;;;;;;26.48;48.02;95047.56;5095872;28;20267;-65
2023/09/23 09:36:18;;;;;;;15.63;7.10;;;;;;;26.52;48.25;95039.75;5094775;28;20546;-66
2023/09/23 09:38:50;;;;;;;15.35;7.07;;;;;;;26.60;48.30;95027.72;5094692;28;20265;-66
2023/09/23 09:41:23;;;;;;;12.65;6.40;;;;;;;26.72;47.49;95028.13;5094586;28;20265;-66
2023/09/23 09:43:52;;;;;;;10.48;6.80;;;;;;;26.79;46.44;95025.81;5095869;28;20258;-66
2023/09/23 09:46:21;;;;;;;13.63;7.38;;;;;;;26.87;46.41;95029.97;5095714;28;20199;-65
2023/09/23 09:48:50;;;;;;;12.43;6.80;;;;;;;27.02;46.91;95023.78;5094505;28;20279;-66
2023/09/23 09:51:21;;;;;;;14.00;7.03;;;;;;;27.13;46.22;95021.38;5095501;28;20206;-66
2023/09/23 09:53:49;;;;;;;10.73;6.78;;;;;;;27.21;45.82;95013.41;5094743;28;20291;-66
2023/09/23 09:56:19;;;;;;;10.93;7.30;;;;;;;27.35;46.17;95013.63;5094667;28;20204;-66
2023/09/23 09:58:49;;;;;;;15.60;7.32;;;;;;;27.52;44.25;95002.06;5094309;28;20220;-66
2023/09/23 10:01:18;;;;;;;14.20;7.45;;;;;;;27.58;44.37;95000.19;5094240;28;20231;-66
2023/09/23 10:03:49;;;;;;;11.48;7.72;;;;;;;27.64;44.65;94997.56;5095389;28;20208;-66
2023/09/23 10:06:19;;;;;;;13.15;6.57;;;;;;;27.72;44.09;94999.63;5095134;28;20192;-65
2023/09/23 10:08:53;;;;;;;12.60;7.00;;;;;;;27.76;43.36;94997.47;5094480;28;20197;-66
2023/09/23 10:11:34;;;;;;;13.00;7.35;;;;;;;27.82;43.34;94984.25;5094025;28;20196;-66
2023/09/23 10:14:16;;;;;;;11.40;6.43;;;;;;;27.93;43.05;94977.38;5094353;28;20197;-66
2023/09/23 10:16:51;;;;;;;12.85;6.50;;;;;;;28.14;42.49;94976.44;5094702;28;20276;-66
2023/09/23 10:19:32;;;;;;;13.20;5.95;;;;;;;28.21;41.26;94983.84;5111389;28;20192;-66
2023/09/23 10:22:17;;;;;;;11.00;6.93;;;;;;;28.16;41.42;94975.97;5095541;28;20189;-66
2023/09/23 10:24:48;;;;;;;12.38;6.68;;;;;;;28.24;42.16;94974.41;5093943;28;20315;-66
2023/09/23 10:27:21;;;;;;;11.00;5.80;;;;;;;28.44;41.22;94985.34;5094318;28;20299;-66
2023/09/23 10:29:50;;;;;;;15.38;6.43;;;;;;;28.49;40.89;94973.34;5094700;28;20292;-66
2023/09/23 10:32:19;;;;;;;13.40;6.63;;;;;;;28.37;40.93;94969.38;5095158;28;20196;-66
2023/09/23 10:34:47;;;;;;;11.65;6.03;;;;;;;28.43;41.03;94969.56;5095079;28;20204;-66
2023/09/23 10:37:28;;;;;;;13.77;6.25;;;;;;;28.53;40.12;94960.56;5094171;28;20200;-66
2023/09/23 10:40:01;;;;;;;9.70;5.82;;;;;;;28.64;39.58;94960.09;5094165;28;20541;-66
2023/09/23 10:42:33;;;;;;;12.70;5.82;;;;;;;28.67;39.20;94950.63;5095138;28;20596;-65
2023/09/23 10:45:03;;;;;;;17.17;5.90;;;;;;;28.74;38.26;94946.69;5094753;28;20238;-65
2023/09/23 10:47:31;;;;;;;11.80;5.72;;;;;;;28.75;39.36;94945.44;5094638;28;20268;-66
2023/09/23 10:49:59;;;;;;;10.38;5.60;;;;;;;28.81;39.33;94937.84;5097478;28;20184;-66
2023/09/23 10:52:27;;;;;;;14.20;6.03;;;;;;;28.78;39.09;94939.59;5098076;28;20193;-65
2023/09/23 10:54:55;;;;;;;11.38;5.95;;;;;;;28.81;37.77;94939.91;5098920;28;20189;-65
2023/09/23 10:57:26;;;;;;;11.75;5.70;;;;;;;28.93;37.84;94933.25;5097872;28;20211;-65
2023/09/23 10:59:55;;;;;;;13.13;5.88;;;;;;;29.01;38.95;94931.69;5097881;28;20242;-65
2023/09/23 11:02:26;;;;;;;12.73;6.05;;;;;;;29.07;37.49;94924.09;5097725;28;20204;-66
2023/09/23 11:04:55;;;;;;;12.38;5.82;;;;;;;29.08;37.62;94916.38;5098480;28;20222;-66
2023/09/23 11:07:24;;;;;;;14.38;5.75;;;;;;;29.14;37.31;94914.47;5098613;28;20192;-66
2023/09/23 11:09:54;;;;;;;14.73;5.75;;;;;;;29.20;37.71;94912.56;5098883;28;20206;-66
2023/09/23 11:12:33;;;;;;;13.15;5.97;;;;;;;29.34;36.89;94906.19;5098363;28;20189;-66
2023/09/23 11:15:00;;;;;;;13.75;5.80;;;;;;;29.35;36.86;94902.06;5097566;28;20608;-66
2023/09/23 11:17:29;;;;;;;14.43;5.63;;;;;;;29.39;36.06;94894.16;5098150;28;20206;-65
2023/09/23 11:19:59;;;;;;;11.93;5.80;;;;;;;29.30;37.25;94899.09;5098693;28;20177;-66
2023/09/23 11:22:28;;;;;;;13.95;5.70;;;;;;;29.30;36.78;94894.19;5097798;28;20642;-65
2023/09/23 11:24:57;;;;;;;12.57;5.53;;;;;;;29.42;37.08;94887.53;5097134;28;20216;-66
2023/09/23 11:27:27;;;;;;;15.93;6.07;;;;;;;29.54;35.83;94885.72;5097416;28;20215;-66
2023/09/23 11:29:55;;;;;;;13.80;5.10;;;;;;;29.57;31.29;94876.22;5097330;28;20244;-66
2023/09/23 11:32:25;;;;;;;11.10;4.78;;;;;;;29.46;31.61;94871.09;5097486;28;20203;-65
2023/09/23 11:34:53;;;;;;;10.60;4.70;;;;;;;29.38;31.77;94867.03;5097384;28;20204;-65
2023/09/23 11:37:22;;;;;;;16.27;5.47;;;;;;;29.33;32.79;94873.34;5097777;28;20211;-65